sensor_id;sensor_type;location;lat;lon;timestamp;pressure;altitude;pressure_sealevel;temperature;humidity
69153;BME280;56261;51.580;4.578;2023-05-07T00:00:09;101642.88;;;14.82;100.00
69153;BME280;56261;51.580;4.578;2023-05-07T00:02:36;101645.94;;;14.79;100.00
69153;BME280;56261;51.580;4.578;2023-05-07T00:05:03;101647.41;;;14.81;100.00
69153;BME280;56261;51.580;4.578;2023-05-07T00:07:29;101653.97;;;14.79;100.00
69153;BME280;56261;51.580;4.578;2023-05-07T00:09:54;101647.13;;;14.76;100.00
69153;BME280;56261;51.580;4.578;2023-05-07T00:12:20;101648.94;;;14.76;100.00
69153;BME280;56261;51.580;4.578;2023-05-07T00:14:45;101653.84;;;14.72;100.00
69153;BME280;56261;51.580;4.578;2023-05-07T00:17:11;101643.19;;;14.56;100.00
69153;BME280;56261;51.580;4.578;2023-05-07T00:19:36;101655.06;;;14.69;100.00
69153;BME280;56261;51.580;4.578;2023-05-07T00:22:02;101659.88;;;14.74;100.00
69153;BME280;56261;51.580;4.578;2023-05-07T00:24:27;101654.16;;;14.77;100.00
69153;BME280;56261;51.580;4.578;2023-05-07T00:26:53;101651.84;;;14.74;100.00
69153;BME280;56261;51.580;4.578;2023-05-07T00:29:18;101657.00;;;14.76;100.00
69153;BME280;56261;51.580;4.578;2023-05-07T00:31:43;101655.84;;;14.78;100.00
69153;BME280;56261;51.580;4.578;2023-05-07T00:34:09;101653.97;;;14.79;100.00
69153;BME280;56261;51.580;4.578;2023-05-07T00:36:34;101648.31;;;14.73;100.00
69153;BME280;56261;51.580;4.578;2023-05-07T00:39:00;101657.06;;;14.67;100.00
69153;BME280;56261;51.580;4.578;2023-05-07T00:41:27;101643.56;;;14.76;100.00
69153;BME280;56261;51.580;4.578;2023-05-07T00:43:52;101647.94;;;14.77;100.00
69153;BME280;56261;51.580;4.578;2023-05-07T00:46:20;101649.16;;;14.74;100.00
69153;BME280;56261;51.580;4.578;2023-05-07T00:48:45;101649.69;;;14.69;100.00
69153;BME280;56261;51.580;4.578;2023-05-07T00:51:11;101644.84;;;14.65;100.00
69153;BME280;56261;51.580;4.578;2023-05-07T00:53:37;101634.63;;;14.52;100.00
69153;BME280;56261;51.580;4.578;2023-05-07T00:56:03;101632.94;;;14.51;100.00
69153;BME280;56261;51.580;4.578;2023-05-07T00:58:29;101646.22;;;14.44;100.00
69153;BME280;56261;51.580;4.578;2023-05-07T01:00:55;101640.72;;;14.38;100.00
69153;BME280;56261;51.580;4.578;2023-05-07T01:03:20;101640.72;;;14.38;100.00
69153;BME280;56261;51.580;4.578;2023-05-07T01:05:48;101637.41;;;14.36;100.00
69153;BME280;56261;51.580;4.578;2023-05-07T01:08:15;101634.53;;;14.37;100.00
69153;BME280;56261;51.580;4.578;2023-05-07T01:10:41;101626.84;;;14.34;100.00
69153;BME280;56261;51.580;4.578;2023-05-07T01:13:09;101636.75;;;14.33;100.00
69153;BME280;56261;51.580;4.578;2023-05-07T01:15:35;101626.69;;;14.36;100.00
69153;BME280;56261;51.580;4.578;2023-05-07T01:18:01;101609.94;;;14.25;100.00
69153;BME280;56261;51.580;4.578;2023-05-07T01:20:27;101615.31;;;14.25;100.00
69153;BME280;56261;51.580;4.578;2023-05-07T01:22:53;101612.50;;;14.19;100.00
69153;BME280;56261;51.580;4.578;2023-05-07T01:25:20;101613.50;;;14.18;100.00
69153;BME280;56261;51.580;4.578;2023-05-07T01:27:45;101611.31;;;14.13;100.00
69153;BME280;56261;51.580;4.578;2023-05-07T01:30:11;101605.81;;;14.06;100.00
69153;BME280;56261;51.580;4.578;2023-05-07T01:32:59;101596.81;;;13.99;100.00
69153;BME280;56261;51.580;4.578;2023-05-07T01:35:32;101605.88;;;13.90;100.00
69153;BME280;56261;51.580;4.578;2023-05-07T01:38:00;101600.06;;;13.86;100.00
69153;BME280;56261;51.580;4.578;2023-05-07T01:40:27;101608.72;;;13.88;100.00
69153;BME280;56261;51.580;4.578;2023-05-07T01:42:53;101606.25;;;13.87;100.00
69153;BME280;56261;51.580;4.578;2023-05-07T01:45:19;101603.88;;;13.92;100.00
69153;BME280;56261;51.580;4.578;2023-05-07T01:47:45;101600.38;;;13.91;100.00
69153;BME280;56261;51.580;4.578;2023-05-07T01:50:11;101605.38;;;13.95;100.00
69153;BME280;56261;51.580;4.578;2023-05-07T01:52:40;101601.50;;;13.97;100.00
69153;BME280;56261;51.580;4.578;2023-05-07T01:55:06;101596.94;;;14.06;100.00
69153;BME280;56261;51.580;4.578;2023-05-07T01:57:32;101608.31;;;14.16;100.00
69153;BME280;56261;51.580;4.578;2023-05-07T01:59:57;101594.41;;;14.12;100.00
69153;BME280;56261;51.580;4.578;2023-05-07T02:02:22;101590.72;;;14.14;100.00
69153;BME280;56261;51.580;4.578;2023-05-07T02:04:48;101597.59;;;14.16;100.00
69153;BME280;56261;51.580;4.578;2023-05-07T02:07:13;101602.28;;;14.14;100.00
69153;BME280;56261;51.580;4.578;2023-05-07T02:09:39;101605.97;;;14.13;100.00
69153;BME280;56261;51.580;4.578;2023-05-07T02:12:04;101606.69;;;14.07;100.00
69153;BME280;56261;51.580;4.578;2023-05-07T02:14:30;101614.50;;;14.17;100.00
69153;BME280;56261;51.580;4.578;2023-05-07T02:16:55;101608.31;;;14.16;100.00
69153;BME280;56261;51.580;4.578;2023-05-07T02:19:21;101598.94;;;14.12;100.00
69153;BME280;56261;51.580;4.578;2023-05-07T02:21:47;101606.16;;;14.11;100.00
69153;BME280;56261;51.580;4.578;2023-05-07T02:24:12;101605.00;;;14.06;100.00
69153;BME280;56261;51.580;4.578;2023-05-07T02:26:42;101606.47;;;14.08;100.00
69153;BME280;56261;51.580;4.578;2023-05-07T02:29:07;101606.31;;;14.10;100.00
69153;BME280;56261;51.580;4.578;2023-05-07T02:31:32;101607.50;;;14.07;100.00
69153;BME280;56261;51.580;4.578;2023-05-07T02:33:59;101596.47;;;14.02;100.00
69153;BME280;56261;51.580;4.578;2023-05-07T02:36:25;101602.50;;;14.04;100.00
69153;BME280;56261;51.580;4.578;2023-05-07T02:38:51;101611.19;;;14.06;100.00
69153;BME280;56261;51.580;4.578;2023-05-07T02:41:17;101613.09;;;13.98;100.00
69153;BME280;56261;51.580;4.578;2023-05-07T02:43:42;101615.41;;;14.01;100.00
69153;BME280;56261;51.580;4.578;2023-05-07T02:46:08;101623.28;;;14.02;100.00
69153;BME280;56261;51.580;4.578;2023-05-07T02:48:34;101618.25;;;14.07;100.00
69153;BME280;56261;51.580;4.578;2023-05-07T02:51:00;101619.22;;;14.06;100.00
69153;BME280;56261;51.580;4.578;2023-05-07T02:53:26;101623.44;;;14.09;100.00
69153;BME280;56261;51.580;4.578;2023-05-07T02:55:56;101613.56;;;14.01;100.00
69153;BME280;56261;51.580;4.578;2023-05-07T02:58:22;101610.56;;;13.96;100.00
69153;BME280;56261;51.580;4.578;2023-05-07T03:00:47;101618.75;;;14.03;100.00
69153;BME280;56261;51.580;4.578;2023-05-07T03:03:13;101622.78;;;14.07;100.00
69153;BME280;56261;51.580;4.578;2023-05-07T03:05:39;101617.88;;;14.10;100.00
69153;BME280;56261;51.580;4.578;2023-05-07T03:08:04;101625.25;;;14.08;100.00
69153;BME280;56261;51.580;4.578;2023-05-07T03:10:30;101621.59;;;14.09;100.00
69153;BME280;56261;51.580;4.578;2023-05-07T03:12:55;101629.09;;;14.14;100.00
69153;BME280;56261;51.580;4.578;2023-05-07T03:15:21;101625.75;;;14.12;100.00
69153;BME280;56261;51.580;4.578;2023-05-07T03:17:50;101620.91;;;14.16;100.00
69153;BME280;56261;51.580;4.578;2023-05-07T03:20:15;101620.91;;;14.16;100.00
69153;BME280;56261;51.580;4.578;2023-05-07T03:22:41;101623.06;;;14.20;100.00
69153;BME280;56261;51.580;4.578;2023-05-07T03:25:07;101623.72;;;14.22;100.00
69153;BME280;56261;51.580;4.578;2023-05-07T03:27:32;101635.28;;;14.23;100.00
69153;BME280;56261;51.580;4.578;2023-05-07T03:29:58;101621.56;;;14.18;100.00
69153;BME280;56261;51.580;4.578;2023-05-07T03:32:23;101622.34;;;14.26;100.00
69153;BME280;56261;51.580;4.578;2023-05-07T03:34:49;101621.19;;;14.21;100.00
69153;BME280;56261;51.580;4.578;2023-05-07T03:37:14;101621.66;;;14.24;100.00
69153;BME280;56261;51.580;4.578;2023-05-07T03:39:40;101619.03;;;14.16;100.00
69153;BME280;56261;51.580;4.578;2023-05-07T03:42:05;101618.03;;;14.17;100.00
69153;BME280;56261;51.580;4.578;2023-05-07T03:44:30;101612.34;;;14.12;100.00
69153;BME280;56261;51.580;4.578;2023-05-07T03:46:56;101617.72;;;14.12;100.00
69153;BME280;56261;51.580;4.578;2023-05-07T03:49:21;101619.34;;;14.21;100.00
69153;BME280;56261;51.580;4.578;2023-05-07T03:51:47;101617.34;;;14.15;100.00
69153;BME280;56261;51.580;4.578;2023-05-07T03:54:12;101616.81;;;14.20;100.00
69153;BME280;56261;51.580;4.578;2023-05-07T03:56:37;101619.19;;;14.23;100.00
69153;BME280;56261;51.580;4.578;2023-05-07T03:59:03;101613.81;;;14.23;100.00
69153;BME280;56261;51.580;4.578;2023-05-07T04:01:28;101619.66;;;14.26;100.00
69153;BME280;56261;51.580;4.578;2023-05-07T04:03:54;101622.38;;;14.18;100.00
69153;BME280;56261;51.580;4.578;2023-05-07T04:06:19;101616.50;;;14.23;100.00
69153;BME280;56261;51.580;4.578;2023-05-07T04:08:44;101623.06;;;14.20;100.00
69153;BME280;56261;51.580;4.578;2023-05-07T04:11:10;101628.94;;;14.16;100.00
69153;BME280;56261;51.580;4.578;2023-05-07T04:13:35;101627.56;;;14.20;100.00
69153;BME280;56261;51.580;4.578;2023-05-07T04:16:02;101632.94;;;14.20;100.00
69153;BME280;56261;51.580;4.578;2023-05-07T04:18:28;101632.41;;;14.24;100.00
69153;BME280;56261;51.580;4.578;2023-05-07T04:20:53;101625.91;;;14.19;100.00
69153;BME280;56261;51.580;4.578;2023-05-07T04:23:19;101637.16;;;14.14;100.00
69153;BME280;56261;51.580;4.578;2023-05-07T04:25:44;101632.09;;;14.19;100.00
69153;BME280;56261;51.580;4.578;2023-05-07T04:28:10;101625.06;;;14.18;100.00
69153;BME280;56261;51.580;4.578;2023-05-07T04:30:36;101622.03;;;14.21;100.00
69153;BME280;56261;51.580;4.578;2023-05-07T04:33:02;101624.03;;;14.27;100.00
69153;BME280;56261;51.580;4.578;2023-05-07T04:35:27;101632.59;;;14.23;100.00
69153;BME280;56261;51.580;4.578;2023-05-07T04:37:53;101636.78;;;14.25;100.00
69153;BME280;56261;51.580;4.578;2023-05-07T04:40:18;101631.72;;;14.30;100.00
69153;BME280;56261;51.580;4.578;2023-05-07T04:42:43;101626.19;;;14.32;100.00
69153;BME280;56261;51.580;4.578;2023-05-07T04:45:09;101633.03;;;14.35;100.00
69153;BME280;56261;51.580;4.578;2023-05-07T04:47:36;101624.81;;;14.36;100.00
69153;BME280;56261;51.580;4.578;2023-05-07T04:50:01;101631.03;;;14.37;100.00
69153;BME280;56261;51.580;4.578;2023-05-07T04:52:27;101627.31;;;14.38;100.00
69153;BME280;56261;51.580;4.578;2023-05-07T04:54:52;101638.78;;;14.31;100.00
69153;BME280;56261;51.580;4.578;2023-05-07T04:57:18;101636.22;;;14.38;100.00
69153;BME280;56261;51.580;4.578;2023-05-07T04:59:44;101641.59;;;14.38;100.00
69153;BME280;56261;51.580;4.578;2023-05-07T05:02:12;101635.03;;;14.41;100.00
69153;BME280;56261;51.580;4.578;2023-05-07T05:04:37;101643.91;;;14.41;100.00
69153;BME280;56261;51.580;4.578;2023-05-07T05:07:03;101645.25;;;14.45;100.00
69153;BME280;56261;51.580;4.578;2023-05-07T05:09:31;101643.56;;;14.44;100.00
69153;BME280;56261;51.580;4.578;2023-05-07T05:11:56;101649.25;;;14.49;100.00
69153;BME280;56261;51.580;4.578;2023-05-07T05:14:21;101650.75;;;14.52;100.00
69153;BME280;56261;51.580;4.578;2023-05-07T05:16:47;101648.06;;;14.52;100.00
69153;BME280;56261;51.580;4.578;2023-05-07T05:19:12;101653.25;;;14.53;100.00
69153;BME280;56261;51.580;4.578;2023-05-07T05:21:38;101652.75;;;14.58;100.00
69153;BME280;56261;51.580;4.578;2023-05-07T05:24:03;101655.44;;;14.50;100.00
69153;BME280;56261;51.580;4.578;2023-05-07T05:26:29;101655.09;;;14.53;100.00
69153;BME280;56261;51.580;4.578;2023-05-07T05:28:54;101653.44;;;14.60;100.00
69153;BME280;56261;51.580;4.578;2023-05-07T05:31:19;101666.84;;;14.60;100.00
69153;BME280;56261;51.580;4.578;2023-05-07T05:33:45;101661.13;;;14.63;100.00
69153;BME280;56261;51.580;4.578;2023-05-07T05:36:10;101665.25;;;14.74;100.00
69153;BME280;56261;51.580;4.578;2023-05-07T05:38:37;101668.59;;;14.76;100.00
69153;BME280;56261;51.580;4.578;2023-05-07T05:41:02;101670.00;;;14.64;100.00
69153;BME280;56261;51.580;4.578;2023-05-07T05:43:28;101677.22;;;14.63;100.00
69153;BME280;56261;51.580;4.578;2023-05-07T05:45:54;101682.00;;;14.45;100.00
69153;BME280;56261;51.580;4.578;2023-05-07T05:48:20;101689.41;;;14.35;100.00
69153;BME280;56261;51.580;4.578;2023-05-07T05:50:45;101687.22;;;14.38;100.00
69153;BME280;56261;51.580;4.578;2023-05-07T05:53:11;101688.50;;;14.59;100.00
69153;BME280;56261;51.580;4.578;2023-05-07T05:55:36;101687.28;;;14.69;100.00
69153;BME280;56261;51.580;4.578;2023-05-07T05:58:02;101684.78;;;14.60;100.00
69153;BME280;56261;51.580;4.578;2023-05-07T06:00:28;101681.63;;;14.56;100.00
69153;BME280;56261;51.580;4.578;2023-05-07T06:02:53;101679.38;;;14.68;100.00
69153;BME280;56261;51.580;4.578;2023-05-07T06:05:18;101673.66;;;14.71;100.00
69153;BME280;56261;51.580;4.578;2023-05-07T06:07:44;101665.81;;;14.61;100.00
69153;BME280;56261;51.580;4.578;2023-05-07T06:10:10;101681.00;;;14.77;100.00
69153;BME280;56261;51.580;4.578;2023-05-07T06:12:36;101681.19;;;14.76;100.00
69153;BME280;56261;51.580;4.578;2023-05-07T06:15:02;101678.44;;;14.84;100.00
69153;BME280;56261;51.580;4.578;2023-05-07T06:17:27;101680.97;;;14.85;100.00
69153;BME280;56261;51.580;4.578;2023-05-07T06:19:52;101686.34;;;15.08;100.00
69153;BME280;56261;51.580;4.578;2023-05-07T06:22:18;101689.19;;;15.07;100.00
69153;BME280;56261;51.580;4.578;2023-05-07T06:24:43;101688.63;;;15.20;100.00
69153;BME280;56261;51.580;4.578;2023-05-07T06:27:10;101697.22;;;15.15;100.00
69153;BME280;56261;51.580;4.578;2023-05-07T06:29:36;101682.47;;;15.11;100.00
69153;BME280;56261;51.580;4.578;2023-05-07T06:32:08;101687.50;;;15.14;100.00
69153;BME280;56261;51.580;4.578;2023-05-07T06:34:34;101697.88;;;15.17;100.00
69153;BME280;56261;51.580;4.578;2023-05-07T06:36:59;101694.81;;;15.20;100.00
69153;BME280;56261;51.580;4.578;2023-05-07T06:39:24;101700.16;;;15.28;100.00
69153;BME280;56261;51.580;4.578;2023-05-07T06:41:50;101692.25;;;15.27;100.00
69153;BME280;56261;51.580;4.578;2023-05-07T06:44:16;101694.94;;;15.27;100.00
69153;BME280;56261;51.580;4.578;2023-05-07T06:46:42;101698.66;;;15.26;100.00
69153;BME280;56261;51.580;4.578;2023-05-07T06:49:07;101701.41;;;15.41;100.00
69153;BME280;56261;51.580;4.578;2023-05-07T06:51:33;101707.97;;;15.38;100.00
69153;BME280;56261;51.580;4.578;2023-05-07T06:53:58;101709.69;;;15.31;100.00
69153;BME280;56261;51.580;4.578;2023-05-07T06:56:23;101705.41;;;15.22;100.00
69153;BME280;56261;51.580;4.578;2023-05-07T06:58:49;101704.16;;;15.32;100.00
69153;BME280;56261;51.580;4.578;2023-05-07T07:01:15;101701.47;;;15.32;100.00
69153;BME280;56261;51.580;4.578;2023-05-07T07:03:40;101701.50;;;15.24;100.00
69153;BME280;56261;51.580;4.578;2023-05-07T07:06:06;101711.28;;;15.25;100.00
69153;BME280;56261;51.580;4.578;2023-05-07T07:08:31;101707.13;;;15.38;100.00
69153;BME280;56261;51.580;4.578;2023-05-07T07:10:57;101710.69;;;15.53;100.00
69153;BME280;56261;51.580;4.578;2023-05-07T07:13:24;101704.72;;;15.66;100.00
69153;BME280;56261;51.580;4.578;2023-05-07T07:15:49;101717.59;;;15.79;100.00
69153;BME280;56261;51.580;4.578;2023-05-07T07:18:15;101706.28;;;15.83;100.00
69153;BME280;56261;51.580;4.578;2023-05-07T07:20:40;101727.41;;;15.86;100.00
69153;BME280;56261;51.580;4.578;2023-05-07T07:23:06;101721.09;;;15.94;100.00
69153;BME280;56261;51.580;4.578;2023-05-07T07:25:31;101722.16;;;15.93;100.00
69153;BME280;56261;51.580;4.578;2023-05-07T07:27:56;101721.31;;;16.07;100.00
69153;BME280;56261;51.580;4.578;2023-05-07T07:30:22;101727.28;;;16.17;100.00
69153;BME280;56261;51.580;4.578;2023-05-07T07:32:47;101727.84;;;16.28;100.00
69153;BME280;56261;51.580;4.578;2023-05-07T07:35:13;101730.34;;;16.44;100.00
69153;BME280;56261;51.580;4.578;2023-05-07T07:37:38;101735.44;;;16.54;100.00
69153;BME280;56261;51.580;4.578;2023-05-07T07:40:04;101723.09;;;16.59;100.00
69153;BME280;56261;51.580;4.578;2023-05-07T07:42:30;101725.38;;;16.77;100.00
69153;BME280;56261;51.580;4.578;2023-05-07T07:44:55;101721.00;;;16.76;100.00
69153;BME280;56261;51.580;4.578;2023-05-07T07:47:22;101728.25;;;16.91;100.00
69153;BME280;56261;51.580;4.578;2023-05-07T07:49:47;101730.59;;;17.15;100.00
69153;BME280;56261;51.580;4.578;2023-05-07T07:52:13;101734.25;;;17.29;100.00
69153;BME280;56261;51.580;4.578;2023-05-07T07:54:38;101736.25;;;17.42;100.00
69153;BME280;56261;51.580;4.578;2023-05-07T07:57:03;101730.94;;;17.77;100.00
69153;BME280;56261;51.580;4.578;2023-05-07T07:59:29;101732.34;;;17.66;100.00
69153;BME280;56261;51.580;4.578;2023-05-07T08:01:54;101737.94;;;17.93;100.00
69153;BME280;56261;51.580;4.578;2023-05-07T08:04:22;101723.03;;;17.97;100.00
69153;BME280;56261;51.580;4.578;2023-05-07T08:06:47;101732.06;;;18.11;100.00
69153;BME280;56261;51.580;4.578;2023-05-07T08:09:12;101747.00;;;18.07;100.00
69153;BME280;56261;51.580;4.578;2023-05-07T08:11:38;101738.72;;;18.15;100.00
69153;BME280;56261;51.580;4.578;2023-05-07T08:14:04;101736.94;;;18.22;100.00
69153;BME280;56261;51.580;4.578;2023-05-07T08:16:30;101733.13;;;18.16;100.00
69153;BME280;56261;51.580;4.578;2023-05-07T08:18:55;101736.41;;;18.40;100.00
69153;BME280;56261;51.580;4.578;2023-05-07T08:21:22;101742.28;;;18.57;100.00
69153;BME280;56261;51.580;4.578;2023-05-07T08:23:47;101735.81;;;18.99;100.00
69153;BME280;56261;51.580;4.578;2023-05-07T08:26:13;101745.22;;;19.10;100.00
69153;BME280;56261;51.580;4.578;2023-05-07T08:28:38;101747.88;;;18.97;100.00
69153;BME280;56261;51.580;4.578;2023-05-07T08:31:04;101749.03;;;19.36;100.00
69153;BME280;56261;51.580;4.578;2023-05-07T08:33:30;101750.53;;;19.58;100.00
69153;BME280;56261;51.580;4.578;2023-05-07T08:35:56;101749.28;;;20.01;100.00
69153;BME280;56261;51.580;4.578;2023-05-07T08:38:21;101749.91;;;20.16;100.00
69153;BME280;56261;51.580;4.578;2023-05-07T08:40:47;101760.09;;;20.21;100.00
69153;BME280;56261;51.580;4.578;2023-05-07T08:43:13;101759.91;;;19.96;100.00
69153;BME280;56261;51.580;4.578;2023-05-07T08:45:40;101762.41;;;19.90;100.00
69153;BME280;56261;51.580;4.578;2023-05-07T08:48:09;101759.69;;;20.10;100.00
69153;BME280;56261;51.580;4.578;2023-05-07T08:50:39;101758.19;;;20.28;100.00
69153;BME280;56261;51.580;4.578;2023-05-07T08:53:05;101760.13;;;20.07;100.00
69153;BME280;56261;51.580;4.578;2023-05-07T08:55:30;101763.88;;;19.93;100.00
69153;BME280;56261;51.580;4.578;2023-05-07T08:57:56;101766.38;;;19.95;100.00
69153;BME280;56261;51.580;4.578;2023-05-07T09:00:21;101766.53;;;19.66;100.00
69153;BME280;56261;51.580;4.578;2023-05-07T09:02:47;101764.69;;;19.94;100.00
69153;BME280;56261;51.580;4.578;2023-05-07T09:05:13;101757.44;;;21.18;100.00
69153;BME280;56261;51.580;4.578;2023-05-07T09:07:38;101749.13;;;21.76;100.00
69153;BME280;56261;51.580;4.578;2023-05-07T09:10:05;101761.53;;;21.33;100.00
69153;BME280;56261;51.580;4.578;2023-05-07T09:12:31;101761.47;;;21.72;100.00
69153;BME280;56261;51.580;4.578;2023-05-07T09:14:56;101765.06;;;21.41;100.00
69153;BME280;56261;51.580;4.578;2023-05-07T09:17:22;101765.88;;;21.48;100.00
69153;BME280;56261;51.580;4.578;2023-05-07T09:19:47;101762.38;;;21.91;100.00
69153;BME280;56261;51.580;4.578;2023-05-07T09:22:13;101771.09;;;22.00;100.00
69153;BME280;56261;51.580;4.578;2023-05-07T09:24:39;101776.63;;;21.86;100.00
69153;BME280;56261;51.580;4.578;2023-05-07T09:27:05;101774.44;;;21.70;100.00
69153;BME280;56261;51.580;4.578;2023-05-07T09:29:31;101776.19;;;21.26;100.00
69153;BME280;56261;51.580;4.578;2023-05-07T09:32:06;101772.50;;;20.55;100.00
69153;BME280;56261;51.580;4.578;2023-05-07T09:34:31;101773.41;;;20.94;100.00
69153;BME280;56261;51.580;4.578;2023-05-07T09:37:04;101773.63;;;20.27;100.00
69153;BME280;56261;51.580;4.578;2023-05-07T09:39:46;101773.38;;;20.36;100.00
69153;BME280;56261;51.580;4.578;2023-05-07T09:42:12;101767.91;;;20.56;100.00
69153;BME280;56261;51.580;4.578;2023-05-07T09:44:40;101775.06;;;20.57;100.00
69153;BME280;56261;51.580;4.578;2023-05-07T09:47:06;101783.25;;;20.03;100.00
69153;BME280;56261;51.580;4.578;2023-05-07T09:49:36;101778.44;;;20.19;100.00
69153;BME280;56261;51.580;4.578;2023-05-07T09:52:03;101773.03;;;20.19;100.00
69153;BME280;56261;51.580;4.578;2023-05-07T09:54:31;101779.09;;;20.01;100.00
69153;BME280;56261;51.580;4.578;2023-05-07T09:56:58;101785.94;;;20.03;100.00
69153;BME280;56261;51.580;4.578;2023-05-07T09:59:24;101784.66;;;19.59;100.00
69153;BME280;56261;51.580;4.578;2023-05-07T10:01:51;101774.50;;;19.75;100.00
69153;BME280;56261;51.580;4.578;2023-05-07T10:04:18;101786.97;;;19.76;100.00
69153;BME280;56261;51.580;4.578;2023-05-07T10:06:45;101786.78;;;19.84;100.00
69153;BME280;56261;51.580;4.578;2023-05-07T10:09:12;101778.84;;;19.76;100.00
69153;BME280;56261;51.580;4.578;2023-05-07T10:11:37;101784.50;;;19.94;100.00
69153;BME280;56261;51.580;4.578;2023-05-07T10:14:04;101778.03;;;19.88;100.00
69153;BME280;56261;51.580;4.578;2023-05-07T10:16:34;101781.16;;;20.05;100.00
69153;BME280;56261;51.580;4.578;2023-05-07T10:19:04;101779.28;;;20.13;100.00
69153;BME280;56261;51.580;4.578;2023-05-07T10:21:35;101781.56;;;19.82;100.00
69153;BME280;56261;51.580;4.578;2023-05-07T10:24:21;101793.59;;;19.66;100.00
69153;BME280;56261;51.580;4.578;2023-05-07T10:26:51;101791.50;;;19.55;100.00
69153;BME280;56261;51.580;4.578;2023-05-07T10:32:25;101800.13;;;19.85;100.00
69153;BME280;56261;51.580;4.578;2023-05-07T10:34:56;101792.63;;;20.07;100.00
69153;BME280;56261;51.580;4.578;2023-05-07T10:37:24;101797.41;;;19.99;100.00
69153;BME280;56261;51.580;4.578;2023-05-07T10:39:50;101804.47;;;20.13;100.00
69153;BME280;56261;51.580;4.578;2023-05-07T10:42:16;101806.78;;;20.23;100.00
69153;BME280;56261;51.580;4.578;2023-05-07T10:44:42;101795.66;;;20.51;100.00
69153;BME280;56261;51.580;4.578;2023-05-07T10:47:09;101797.13;;;20.40;100.00
69153;BME280;56261;51.580;4.578;2023-05-07T10:49:36;101803.03;;;19.97;100.00
69153;BME280;56261;51.580;4.578;2023-05-07T10:54:40;101804.06;;;20.29;100.00
69153;BME280;56261;51.580;4.578;2023-05-07T10:57:33;101813.41;;;20.27;100.00
69153;BME280;56261;51.580;4.578;2023-05-07T11:05:25;101819.03;;;20.45;100.00
69153;BME280;56261;51.580;4.578;2023-05-07T11:07:59;101824.25;;;19.87;100.00
69153;BME280;56261;51.580;4.578;2023-05-07T11:10:50;101820.50;;;20.48;100.00
69153;BME280;56261;51.580;4.578;2023-05-07T11:13:16;101824.03;;;20.48;100.00
69153;BME280;56261;51.580;4.578;2023-05-07T11:15:45;101823.03;;;20.29;100.00
69153;BME280;56261;51.580;4.578;2023-05-07T11:18:12;101824.25;;;20.14;100.00
69153;BME280;56261;51.580;4.578;2023-05-07T11:20:53;101823.41;;;20.60;100.00
69153;BME280;56261;51.580;4.578;2023-05-07T11:28:28;101838.84;;;19.86;100.00
69153;BME280;56261;51.580;4.578;2023-05-07T11:30:54;101834.25;;;19.86;100.00
69153;BME280;56261;51.580;4.578;2023-05-07T11:33:20;101828.34;;;19.49;100.00
69153;BME280;56261;51.580;4.578;2023-05-07T11:35:45;101829.00;;;19.58;100.00
69153;BME280;56261;51.580;4.578;2023-05-07T11:38:12;101832.94;;;19.62;100.00
69153;BME280;56261;51.580;4.578;2023-05-07T11:40:55;101827.19;;;19.79;100.00
69153;BME280;56261;51.580;4.578;2023-05-07T11:43:21;101835.72;;;19.89;100.00
69153;BME280;56261;51.580;4.578;2023-05-07T11:45:47;101835.53;;;20.24;100.00
69153;BME280;56261;51.580;4.578;2023-05-07T11:48:14;101836.97;;;19.93;100.00
69153;BME280;56261;51.580;4.578;2023-05-07T11:50:52;101836.78;;;20.15;100.00
69153;BME280;56261;51.580;4.578;2023-05-07T11:53:19;101830.09;;;20.17;100.00
69153;BME280;56261;51.580;4.578;2023-05-07T11:55:45;101840.13;;;20.10;100.00
69153;BME280;56261;51.580;4.578;2023-05-07T11:58:12;101841.56;;;20.19;100.00
69153;BME280;56261;51.580;4.578;2023-05-07T12:00:52;101843.84;;;19.96;100.00
69153;BME280;56261;51.580;4.578;2023-05-07T12:03:18;101844.00;;;19.67;100.00
69153;BME280;56261;51.580;4.578;2023-05-07T12:05:45;101845.78;;;19.27;100.00
69153;BME280;56261;51.580;4.578;2023-05-07T12:08:14;101847.53;;;19.61;100.00
69153;BME280;56261;51.580;4.578;2023-05-07T12:10:41;101837.13;;;19.58;100.00
69153;BME280;56261;51.580;4.578;2023-05-07T12:13:14;101852.38;;;19.79;100.00
69153;BME280;56261;51.580;4.578;2023-05-07T12:15:41;101835.94;;;19.81;100.00
69153;BME280;56261;51.580;4.578;2023-05-07T12:18:06;101849.66;;;19.73;100.00
69153;BME280;56261;51.580;4.578;2023-05-07T12:20:34;101838.44;;;19.96;100.00
69153;BME280;56261;51.580;4.578;2023-05-07T12:23:01;101828.66;;;20.08;100.00
69153;BME280;56261;51.580;4.578;2023-05-07T12:25:29;101844.06;;;20.34;100.00
69153;BME280;56261;51.580;4.578;2023-05-07T12:27:54;101839.88;;;20.38;100.00
69153;BME280;56261;51.580;4.578;2023-05-07T12:30:20;101839.03;;;20.44;100.00
69153;BME280;56261;51.580;4.578;2023-05-07T12:32:45;101843.22;;;20.27;100.00
69153;BME280;56261;51.580;4.578;2023-05-07T12:35:11;101842.19;;;20.28;100.00
69153;BME280;56261;51.580;4.578;2023-05-07T12:37:36;101843.84;;;20.42;100.00
69153;BME280;56261;51.580;4.578;2023-05-07T12:42:37;101838.03;;;20.32;100.00
69153;BME280;56261;51.580;4.578;2023-05-07T12:45:13;101851.94;;;20.56;100.00
69153;BME280;56261;51.580;4.578;2023-05-07T12:47:44;101857.41;;;20.22;100.00
69153;BME280;56261;51.580;4.578;2023-05-07T12:50:10;101856.38;;;20.37;100.00
69153;BME280;56261;51.580;4.578;2023-05-07T12:52:36;101862.00;;;20.28;100.00
69153;BME280;56261;51.580;4.578;2023-05-07T12:55:06;101870.50;;;19.72;100.00